Time;durP1;ratioP1;P1;durP2;ratioP2;P2;SDS_P1;SDS_P2;PMS_P1;PMS_P2;Temp;Humidity;BMP_temperature;BMP_pressure;BME280_temperature;BME280_humidity;BME280_pressure;Samples;Min_cycle;Max_cycle;Signal;HPM_P1;HPM_P2
2023/01/24 00:02:19;;;;;;;42.13;29.65;;;2.80;99.90;;;;;;4980382;28;90301;-35
2023/01/24 00:04:44;;;;;;;38.60;29.27;;;2.90;99.90;;;;;;4980587;28;89916;-33
2023/01/24 00:07:10;;;;;;;38.03;29.40;;;2.80;99.90;;;;;;4981110;28;88964;-34
2023/01/24 00:09:35;;;;;;;46.22;30.20;;;2.80;99.90;;;;;;4983113;28;89211;-36
2023/01/24 00:12:01;;;;;;;38.80;28.63;;;2.80;99.90;;;;;;4981506;28;89930;-32
2023/01/24 00:14:26;;;;;;;41.90;29.60;;;2.80;99.90;;;;;;4985618;28;89470;-31
2023/01/24 00:16:52;;;;;;;37.67;29.35;;;2.80;99.90;;;;;;4982779;28;89554;-32
2023/01/24 00:19:18;;;;;;;37.60;28.85;;;2.80;99.90;;;;;;4987220;28;90269;-32
2023/01/24 00:21:43;;;;;;;39.22;29.33;;;2.80;99.90;;;;;;4983317;28;89218;-31
2023/01/24 00:24:09;;;;;;;39.70;29.08;;;2.80;99.90;;;;;;4986996;28;89515;-32
2023/01/24 00:26:34;;;;;;;36.17;28.95;;;2.80;99.90;;;;;;4983779;28;89463;-31
2023/01/24 00:29:00;;;;;;;39.40;28.05;;;2.80;99.90;;;;;;4987030;28;88135;-31
2023/01/24 00:31:25;;;;;;;37.03;29.88;;;2.80;99.90;;;;;;4983381;28;90599;-32
2023/01/24 00:33:51;;;;;;;42.13;30.30;;;2.80;99.90;;;;;;4987048;28;90535;-32
2023/01/24 00:36:17;;;;;;;38.70;30.50;;;2.80;99.90;;;;;;4991251;28;90595;-32
2023/01/24 00:38:42;;;;;;;44.38;28.95;;;2.80;99.90;;;;;;4991638;28;88493;-32
2023/01/24 00:41:08;;;;;;;43.35;28.88;;;2.80;99.90;;;;;;4984978;28;90396;-31
2023/01/24 00:43:34;;;;;;;38.08;27.27;;;2.80;99.90;;;;;;4990842;28;89534;-31
2023/01/24 00:46:00;;;;;;;43.30;29.63;;;2.90;99.90;;;;;;4997707;28;89764;-30
2023/01/24 00:48:25;;;;;;;36.75;29.10;;;2.90;99.90;;;;;;4989256;28;89518;-33
2023/01/24 00:50:51;;;;;;;38.42;28.67;;;2.90;99.90;;;;;;4982667;28;88345;-30
2023/01/24 00:53:17;;;;;;;40.55;28.40;;;2.80;99.90;;;;;;4985735;28;89816;-33
2023/01/24 00:55:44;;;;;;;42.05;30.73;;;2.90;99.90;;;;;;4982617;28;89195;-31
2023/01/24 00:58:11;;;;;;;41.50;28.35;;;2.90;99.90;;;;;;4985005;28;90856;-32
2023/01/24 01:00:38;;;;;;;40.45;29.25;;;2.90;99.90;;;;;;4982060;28;90392;-33
2023/01/24 01:03:05;;;;;;;36.78;26.88;;;2.90;99.90;;;;;;4985833;28;90025;-30
2023/01/24 01:05:31;;;;;;;40.20;29.08;;;2.90;99.90;;;;;;4982621;28;89634;-32
2023/01/24 01:07:56;;;;;;;35.28;26.33;;;2.80;99.90;;;;;;4986020;28;89457;-34
2023/01/24 01:10:22;;;;;;;33.80;26.23;;;2.90;99.90;;;;;;4991046;28;90626;-32
2023/01/24 01:12:48;;;;;;;33.35;26.52;;;2.90;99.90;;;;;;4994548;28;89625;-31
2023/01/24 01:15:13;;;;;;;40.72;26.52;;;2.90;99.90;;;;;;4982940;28;91094;-33
2023/01/24 01:17:39;;;;;;;39.72;27.63;;;2.90;99.90;;;;;;4986946;28;89051;-31
2023/01/24 01:20:05;;;;;;;34.58;24.02;;;2.90;99.90;;;;;;4994662;28;90218;-35
2023/01/24 01:22:31;;;;;;;36.63;27.35;;;2.90;99.90;;;;;;4985576;28;92480;-30
2023/01/24 01:24:56;;;;;;;35.38;28.77;;;3.00;99.90;;;;;;4982288;28;90594;-34
2023/01/24 01:27:22;;;;;;;35.20;26.75;;;2.90;99.90;;;;;;4986338;28;87830;-34
2023/01/24 01:29:48;;;;;;;30.33;23.27;;;3.00;99.90;;;;;;4981741;28;90163;-32
2023/01/24 01:32:13;;;;;;;29.20;25.23;;;3.00;99.90;;;;;;4986301;28;90543;-32
2023/01/24 01:34:39;;;;;;;30.80;25.67;;;3.00;99.90;;;;;;4982124;28;90530;-32
2023/01/24 01:37:04;;;;;;;33.47;23.80;;;3.10;99.90;;;;;;4986192;28;88455;-33
2023/01/24 01:39:30;;;;;;;34.50;26.65;;;3.10;99.90;;;;;;4982547;28;91511;-31
2023/01/24 01:41:55;;;;;;;34.97;25.67;;;3.00;99.90;;;;;;4994569;28;89594;-32
2023/01/24 01:44:38;;;;;;;33.55;24.75;;;3.00;99.90;;;;;;4982706;28;89688;-33
2023/01/24 01:47:27;;;;;;;39.70;27.65;;;3.00;99.90;;;;;;4985460;28;89006;-32
2023/01/24 01:49:59;;;;;;;32.90;25.02;;;3.00;99.90;;;;;;4982807;28;89470;-31
2023/01/24 01:52:29;;;;;;;41.45;27.10;;;3.00;99.90;;;;;;4979276;28;90139;-33
2023/01/24 01:55:00;;;;;;;34.72;24.25;;;3.00;99.90;;;;;;4979934;28;89607;-32
2023/01/24 01:57:29;;;;;;;36.10;25.17;;;3.10;99.90;;;;;;4979825;28;90081;-31
2023/01/24 02:00:15;;;;;;;33.63;25.42;;;3.00;99.90;;;;;;4978923;28;90313;-32
2023/01/24 02:02:46;;;;;;;31.05;25.45;;;3.00;99.90;;;;;;4978219;28;90622;-32
2023/01/24 02:05:16;;;;;;;37.42;25.35;;;3.00;99.90;;;;;;4990110;28;89727;-34
2023/01/24 02:08:00;;;;;;;35.45;25.38;;;3.00;99.90;;;;;;4978167;28;90160;-32
2023/01/24 02:11:37;;;;;;;31.13;23.58;;;2.90;99.90;;;;;;4980836;28;90534;-33
2023/01/24 02:13:13;;;;;;;33.30;23.75;;;2.90;99.90;;;;;;4981858;28;91381;-32
2023/01/24 02:18:23;;;;;;;27.20;22.23;;;3.00;99.90;;;;;;4981894;28;88832;-32
2023/01/24 02:20:49;;;;;;;29.35;21.45;;;3.00;99.90;;;;;;4982612;28;89798;-31
2023/01/24 02:23:41;;;;;;;29.65;19.02;;;3.00;99.90;;;;;;4981780;28;89865;-31
2023/01/24 02:26:15;;;;;;;22.75;18.40;;;3.10;99.90;;;;;;4989471;28;89844;-32
2023/01/24 02:28:50;;;;;;;22.05;15.75;;;3.30;99.90;;;;;;4986100;28;88325;-33
2023/01/24 02:31:16;;;;;;;21.95;15.50;;;3.40;99.90;;;;;;4982972;28;89650;-31
2023/01/24 02:33:41;;;;;;;23.00;16.65;;;3.30;99.90;;;;;;4982898;28;89769;-34
2023/01/24 02:36:19;;;;;;;19.95;16.02;;;3.40;99.90;;;;;;4982886;28;89323;-33
2023/01/24 02:38:49;;;;;;;22.35;15.70;;;3.40;99.90;;;;;;4983084;28;90249;-32
2023/01/24 02:41:17;;;;;;;29.65;20.73;;;3.50;99.90;;;;;;4994385;28;90579;-32
2023/01/24 02:43:48;;;;;;;27.33;17.50;;;3.40;99.90;;;;;;4995233;28;89728;-31
2023/01/24 02:46:13;;;;;;;21.67;16.50;;;3.30;99.90;;;;;;4982551;28;89846;-32
2023/01/24 02:48:39;;;;;;;27.08;21.05;;;3.40;99.90;;;;;;4998977;28;89652;-32
2023/01/24 02:53:49;;;;;;;24.52;16.05;;;3.30;99.90;;;;;;4980978;28;89903;-31
2023/01/24 02:58:59;;;;;;;23.27;16.15;;;3.30;99.90;;;;;;4981637;28;88350;-31
2023/01/24 03:01:25;;;;;;;17.08;13.52;;;3.30;99.90;;;;;;4993560;28;90102;-32
2023/01/24 03:03:52;;;;;;;21.55;17.13;;;3.40;99.90;;;;;;4980577;28;90727;-31
2023/01/24 03:06:18;;;;;;;23.80;16.42;;;3.40;99.90;;;;;;4984521;28;90352;-32
2023/01/24 03:08:44;;;;;;;29.35;17.95;;;3.40;99.90;;;;;;4989563;28;88851;-32
2023/01/24 03:11:11;;;;;;;25.80;17.92;;;3.40;99.90;;;;;;4982191;28;90214;-32
2023/01/24 03:35:34;;;;;;;19.73;15.20;;;3.20;99.90;;;;;;5000219;28;89783;-31
2023/01/24 03:40:45;;;;;;;18.10;14.15;;;3.20;99.90;;;;;;4997298;28;89443;-32
2023/01/24 03:43:11;;;;;;;16.10;11.70;;;3.20;99.90;;;;;;4999898;28;90013;-32
2023/01/24 03:45:38;;;;;;;17.52;13.50;;;3.30;99.90;;;;;;4999717;28;89103;-31
2023/01/24 03:48:12;;;;;;;13.15;9.20;;;3.20;99.90;;;;;;4999846;28;91028;-31
2023/01/24 03:53:27;;;;;;;16.88;12.93;;;3.20;99.90;;;;;;4999111;28;90174;-31
2023/01/24 03:55:58;;;;;;;16.40;13.48;;;3.20;99.90;;;;;;4999546;28;89252;-31
2023/01/24 03:58:25;;;;;;;17.73;11.50;;;3.20;99.90;;;;;;4999852;28;90540;-32
2023/01/24 04:00:52;;;;;;;22.20;14.52;;;3.20;99.90;;;;;;4999621;28;89376;-32
2023/01/24 04:03:18;;;;;;;22.25;15.23;;;3.30;99.90;;;;;;4998282;28;89784;-32
2023/01/24 04:05:46;;;;;;;20.55;13.88;;;3.20;99.90;;;;;;4999570;28;90013;-32
2023/01/24 04:08:11;;;;;;;22.88;14.40;;;3.20;99.90;;;;;;4999568;28;89623;-34
2023/01/24 04:10:37;;;;;;;16.52;13.27;;;3.10;99.90;;;;;;4999229;28;89188;-32
2023/01/24 04:13:03;;;;;;;19.10;14.45;;;3.10;99.90;;;;;;4999781;28;89631;-33
2023/01/24 04:15:30;;;;;;;21.73;13.38;;;3.10;99.90;;;;;;4999358;28;90129;-33
2023/01/24 04:17:57;;;;;;;14.77;12.03;;;3.10;99.90;;;;;;4998607;28;89674;-31
2023/01/24 04:20:24;;;;;;;17.65;14.30;;;3.20;99.90;;;;;;4998960;28;90476;-35
2023/01/24 04:22:50;;;;;;;18.90;13.32;;;3.10;99.90;;;;;;4999340;28;90413;-31
2023/01/24 04:25:15;;;;;;;15.05;12.25;;;3.20;99.90;;;;;;4999536;28;89696;-31
2023/01/24 04:27:41;;;;;;;17.48;12.73;;;3.20;99.90;;;;;;4997120;28;90181;-33
2023/01/24 04:30:10;;;;;;;17.77;13.07;;;3.20;99.90;;;;;;4999018;28;90000;-31
2023/01/24 04:32:36;;;;;;;16.50;12.98;;;3.30;99.90;;;;;;4997812;28;90106;-33
2023/01/24 04:35:03;;;;;;;20.17;13.93;;;3.20;99.90;;;;;;4999636;28;89293;-30
2023/01/24 04:37:29;;;;;;;16.92;13.85;;;3.20;99.90;;;;;;4999681;28;89235;-31
2023/01/24 04:39:55;;;;;;;16.25;12.45;;;3.10;99.90;;;;;;4998262;28;89229;-31
2023/01/24 04:42:21;;;;;;;18.98;14.38;;;3.10;99.90;;;;;;4998645;28;90396;-33
2023/01/24 04:44:46;;;;;;;18.02;14.07;;;3.10;99.90;;;;;;4996683;28;91531;-32
2023/01/24 04:47:12;;;;;;;16.55;13.52;;;3.00;99.90;;;;;;4998631;28;90444;-31
2023/01/24 04:49:37;;;;;;;13.88;11.80;;;3.00;99.90;;;;;;4998855;28;88657;-31
2023/01/24 04:52:03;;;;;;;19.67;13.25;;;3.10;99.90;;;;;;4998287;28;90036;-31
2023/01/24 04:54:29;;;;;;;17.17;12.70;;;3.00;99.90;;;;;;4998700;28;89218;-34
2023/01/24 04:56:55;;;;;;;17.17;10.98;;;3.10;99.90;;;;;;4998732;28;88530;-32
2023/01/24 04:59:20;;;;;;;16.58;13.07;;;3.10;99.90;;;;;;4999951;28;89965;-31
2023/01/24 05:01:46;;;;;;;14.55;12.07;;;3.20;99.90;;;;;;4998722;28;91305;-32
2023/01/24 05:04:12;;;;;;;16.33;12.13;;;3.10;99.90;;;;;;4998268;28;88983;-32
2023/01/24 05:06:37;;;;;;;14.13;11.15;;;3.10;99.90;;;;;;4998020;28;89493;-32
2023/01/24 05:09:03;;;;;;;16.10;11.63;;;3.10;99.90;;;;;;4998098;28;89685;-33
2023/01/24 05:11:29;;;;;;;15.40;12.63;;;3.10;99.90;;;;;;4998388;28;90131;-32
2023/01/24 05:13:55;;;;;;;15.23;12.55;;;3.10;99.90;;;;;;4998488;28;89801;-33
2023/01/24 05:16:20;;;;;;;18.42;12.40;;;3.20;99.90;;;;;;4998418;28;91040;-32
2023/01/24 05:18:46;;;;;;;16.35;13.25;;;3.10;99.90;;;;;;4998151;28;89183;-33
2023/01/24 05:21:14;;;;;;;13.35;11.50;;;3.10;99.90;;;;;;4998120;28;90343;-31
2023/01/24 05:23:40;;;;;;;15.07;9.88;;;3.00;99.90;;;;;;4998027;28;89555;-33
2023/01/24 05:26:07;;;;;;;13.13;10.90;;;3.10;99.90;;;;;;4987576;28;89457;-31
2023/01/24 05:28:33;;;;;;;17.15;11.52;;;3.20;99.90;;;;;;4998344;28;89526;-31
2023/01/24 05:31:03;;;;;;;13.32;11.18;;;3.20;99.90;;;;;;4998195;28;90291;-32
2023/01/24 05:33:29;;;;;;;17.98;14.02;;;3.20;99.90;;;;;;4997451;28;89965;-33
2023/01/24 05:36:04;;;;;;;17.20;14.85;;;3.20;99.90;;;;;;4998454;28;90321;-31
2023/01/24 05:38:30;;;;;;;16.45;12.60;;;3.10;99.90;;;;;;4997794;28;89454;-32
2023/01/24 05:41:04;;;;;;;16.98;11.27;;;3.10;99.90;;;;;;4997908;28;90312;-33
2023/01/24 05:43:30;;;;;;;17.75;13.75;;;3.00;99.90;;;;;;4997068;28;88341;-33
2023/01/24 05:46:01;;;;;;;19.02;14.77;;;3.00;99.90;;;;;;5001482;28;89410;-31
2023/01/24 05:48:27;;;;;;;17.25;13.45;;;3.00;99.90;;;;;;5001699;28;88811;-31
2023/01/24 05:51:00;;;;;;;18.95;13.65;;;3.00;99.90;;;;;;5002443;28;90072;-33
2023/01/24 05:53:27;;;;;;;16.45;13.18;;;3.00;99.90;;;;;;5001126;28;90135;-31
2023/01/24 05:56:00;;;;;;;15.02;13.50;;;2.90;99.90;;;;;;5002147;28;89330;-31
2023/01/24 05:58:28;;;;;;;19.48;13.35;;;2.90;99.90;;;;;;5000267;28;89695;-32
2023/01/24 06:00:54;;;;;;;17.95;13.57;;;2.90;99.90;;;;;;5002185;28;89989;-33
2023/01/24 06:03:20;;;;;;;16.73;14.82;;;3.00;99.90;;;;;;4999818;28;89787;-32
2023/01/24 06:05:47;;;;;;;17.98;15.07;;;2.90;99.90;;;;;;5000791;28;90145;-32
2023/01/24 06:08:13;;;;;;;13.33;10.30;;;2.90;99.90;;;;;;5007012;28;89374;-32
2023/01/24 06:10:39;;;;;;;20.30;13.52;;;2.90;99.90;;;;;;5000874;28;90240;-31
2023/01/24 06:13:04;;;;;;;21.90;14.95;;;3.00;99.90;;;;;;5000456;28;89359;-35
2023/01/24 06:15:30;;;;;;;25.20;12.75;;;3.00;99.90;;;;;;5002222;28;89581;-31
2023/01/24 06:17:56;;;;;;;17.13;13.68;;;3.00;99.90;;;;;;5000671;28;89939;-31
2023/01/24 06:20:21;;;;;;;19.40;14.13;;;3.00;99.90;;;;;;5001208;28;90913;-31
2023/01/24 06:22:53;;;;;;;19.33;13.77;;;3.00;99.90;;;;;;4999618;28;90783;-31
2023/01/24 06:25:22;;;;;;;16.25;13.88;;;3.00;99.90;;;;;;5001066;28;91825;-32
2023/01/24 06:27:48;;;;;;;22.20;14.30;;;2.90;99.90;;;;;;4997048;28;88362;-33
2023/01/24 06:30:16;;;;;;;20.63;13.25;;;2.90;99.90;;;;;;5000475;28;90792;-32
2023/01/24 06:33:15;;;;;;;18.63;14.93;;;2.90;99.90;;;;;;4999157;28;91593;-32
2023/01/24 06:35:59;;;;;;;22.88;15.43;;;2.90;99.90;;;;;;5000830;28;89621;-31
2023/01/24 06:38:25;;;;;;;19.20;14.35;;;2.90;99.90;;;;;;4996212;28;90392;-32
2023/01/24 06:40:59;;;;;;;15.40;13.10;;;2.90;99.90;;;;;;5000088;28;90000;-30
2023/01/24 06:43:24;;;;;;;20.80;13.38;;;2.90;99.90;;;;;;5001042;28;89630;-31
2023/01/24 06:45:50;;;;;;;16.40;11.25;;;2.90;99.90;;;;;;5000250;28;89706;-34
2023/01/24 06:48:16;;;;;;;18.05;12.50;;;3.00;99.90;;;;;;5000329;28;89345;-31
2023/01/24 06:50:41;;;;;;;19.35;13.90;;;3.00;99.90;;;;;;5000533;28;91558;-32
2023/01/24 06:53:07;;;;;;;15.50;13.55;;;3.00;99.90;;;;;;5000381;28;89901;-31
2023/01/24 06:55:34;;;;;;;18.45;13.45;;;3.00;99.90;;;;;;5000188;28;88091;-31
2023/01/24 06:58:01;;;;;;;21.75;15.68;;;2.90;99.90;;;;;;4999504;28;89409;-31
2023/01/24 07:00:29;;;;;;;17.50;13.93;;;2.90;99.90;;;;;;5000716;28;90205;-31
2023/01/24 07:03:12;;;;;;;20.30;15.63;;;2.80;99.90;;;;;;5000875;28;89578;-32
2023/01/24 07:05:39;;;;;;;18.73;13.18;;;2.80;99.90;;;;;;5000253;28;89599;-32
2023/01/24 07:08:06;;;;;;;18.15;14.80;;;2.90;99.90;;;;;;4999945;28;89020;-32
2023/01/24 07:10:32;;;;;;;20.60;16.17;;;2.90;99.90;;;;;;5001029;28;89185;-31
2023/01/24 07:12:58;;;;;;;15.30;13.32;;;2.80;99.90;;;;;;4996014;28;90678;-32
2023/01/24 07:15:24;;;;;;;17.92;13.68;;;2.80;99.90;;;;;;4998796;28;90408;-33
2023/01/24 07:17:50;;;;;;;22.92;14.75;;;2.80;99.90;;;;;;5000224;28;88832;-32
2023/01/24 07:20:16;;;;;;;17.27;14.05;;;2.80;99.90;;;;;;5000066;28;91242;-31
2023/01/24 07:22:42;;;;;;;17.98;14.15;;;2.80;99.90;;;;;;5015206;28;89941;-31
2023/01/24 07:25:18;;;;;;;18.95;15.38;;;2.80;99.90;;;;;;5000122;28;89612;-34
2023/01/24 07:27:45;;;;;;;17.58;13.02;;;2.80;99.90;;;;;;5000030;28;88662;-33
2023/01/24 07:30:12;;;;;;;19.00;15.20;;;2.80;99.90;;;;;;4998237;28;90104;-33
2023/01/24 07:32:38;;;;;;;19.88;15.73;;;2.80;99.90;;;;;;4998168;28;89362;-34
2023/01/24 07:35:05;;;;;;;19.30;14.18;;;2.80;99.90;;;;;;4998396;28;88235;-33
2023/01/24 07:37:31;;;;;;;19.33;13.63;;;2.70;99.90;;;;;;4997587;28;88425;-34
2023/01/24 07:39:57;;;;;;;18.98;13.95;;;2.80;99.90;;;;;;4997595;28;90182;-31
2023/01/24 07:42:22;;;;;;;17.17;15.10;;;2.80;99.90;;;;;;4998732;28;89954;-33
2023/01/24 07:44:48;;;;;;;26.20;17.35;;;2.80;99.90;;;;;;4998491;28;89616;-32
2023/01/24 07:47:13;;;;;;;21.75;15.20;;;2.70;99.90;;;;;;4997993;28;89832;-32
2023/01/24 07:49:39;;;;;;;15.25;12.88;;;2.70;99.90;;;;;;4997942;28;89249;-32
2023/01/24 07:52:05;;;;;;;17.98;14.68;;;2.80;99.90;;;;;;4997759;28;89811;-32
2023/01/24 07:54:30;;;;;;;22.08;15.43;;;2.80;99.90;;;;;;4998824;28;90134;-34
2023/01/24 07:56:56;;;;;;;16.60;13.05;;;2.80;99.90;;;;;;4998515;28;89329;-34
2023/01/24 07:59:22;;;;;;;21.17;15.52;;;2.80;99.90;;;;;;4997273;28;89966;-34
2023/01/24 08:01:47;;;;;;;19.73;14.60;;;2.80;99.90;;;;;;4996843;28;90749;-31
2023/01/24 08:04:13;;;;;;;19.33;12.48;;;2.80;99.90;;;;;;4996865;28;90040;-31
2023/01/24 08:07:16;;;;;;;19.60;13.98;;;2.80;99.90;;;;;;4997460;28;88806;-34
2023/01/24 08:09:26;;;;;;;17.00;12.98;;;2.80;99.90;;;;;;4997634;28;91568;-30
2023/01/24 08:11:52;;;;;;;19.77;14.77;;;2.80;99.90;;;;;;4997619;28;89485;-32
2023/01/24 08:14:17;;;;;;;16.65;14.63;;;2.90;99.90;;;;;;4997992;28;89420;-33
2023/01/24 08:16:43;;;;;;;17.70;13.73;;;2.80;99.90;;;;;;4997444;28;88085;-31
2023/01/24 08:19:08;;;;;;;18.63;15.00;;;2.80;99.90;;;;;;4997796;28;90511;-32
2023/01/24 08:21:34;;;;;;;18.30;14.02;;;2.80;99.90;;;;;;4998193;28;90572;-33
2023/01/24 08:23:59;;;;;;;21.70;16.05;;;2.80;99.90;;;;;;4996584;28;89365;-31
2023/01/24 08:26:25;;;;;;;17.73;14.82;;;2.80;99.90;;;;;;4997800;28;88886;-33
2023/01/24 08:28:51;;;;;;;21.05;15.23;;;2.80;99.90;;;;;;4996935;28;90300;-31
2023/01/24 08:31:16;;;;;;;19.83;15.65;;;2.90;99.90;;;;;;4997865;28;89938;-34
2023/01/24 08:33:42;;;;;;;18.50;12.75;;;2.90;99.90;;;;;;4997929;28;89614;-34
2023/01/24 08:36:07;;;;;;;18.77;13.90;;;2.90;99.90;;;;;;4997711;28;88979;-32
2023/01/24 08:38:33;;;;;;;19.45;16.65;;;2.80;99.90;;;;;;4997175;28;90371;-32
2023/01/24 08:41:02;;;;;;;16.08;12.80;;;2.90;99.90;;;;;;4996258;28;89137;-32
2023/01/24 08:43:28;;;;;;;18.60;14.85;;;2.90;99.90;;;;;;4997461;28;89684;-33
2023/01/24 08:45:55;;;;;;;21.02;16.00;;;2.90;99.90;;;;;;4997993;28;87852;-32
2023/01/24 08:48:21;;;;;;;18.20;13.68;;;2.90;99.90;;;;;;4995723;28;90524;-31
2023/01/24 08:50:46;;;;;;;20.67;14.45;;;2.80;99.90;;;;;;4995915;28;91083;-32
2023/01/24 08:53:12;;;;;;;19.02;15.85;;;2.80;99.90;;;;;;4996593;28;90107;-32
2023/01/24 08:55:38;;;;;;;21.27;15.63;;;2.80;99.90;;;;;;4996987;28;89557;-31
2023/01/24 08:58:04;;;;;;;17.80;13.60;;;2.80;99.90;;;;;;4997335;28;90109;-34
2023/01/24 09:00:30;;;;;;;21.00;14.93;;;2.90;99.90;;;;;;4996644;28;89135;-31
2023/01/24 09:03:01;;;;;;;17.08;14.07;;;2.90;99.90;;;;;;4996380;28;90168;-32
2023/01/24 09:05:28;;;;;;;20.77;15.70;;;3.00;99.90;;;;;;4996587;28;89809;-31
2023/01/24 09:07:53;;;;;;;23.73;15.63;;;2.90;99.90;;;;;;4997019;28;90823;-34
2023/01/24 09:10:19;;;;;;;18.35;14.82;;;2.90;99.90;;;;;;4995838;28;88440;-31
2023/01/24 09:12:44;;;;;;;16.90;14.23;;;2.90;99.90;;;;;;4996616;28;89532;-34
2023/01/24 09:15:10;;;;;;;19.10;15.52;;;3.00;99.90;;;;;;4996249;28;90039;-32
2023/01/24 09:17:37;;;;;;;25.05;15.05;;;2.90;99.90;;;;;;4995658;28;89843;-31
2023/01/24 09:20:05;;;;;;;21.30;14.13;;;2.80;99.90;;;;;;4996512;28;89711;-32
2023/01/24 09:22:30;;;;;;;18.67;15.77;;;2.80;99.90;;;;;;4997165;28;90105;-33
2023/01/24 09:24:56;;;;;;;18.48;14.50;;;2.80;99.90;;;;;;4995804;28;88298;-30
2023/01/24 09:27:21;;;;;;;18.60;14.95;;;2.80;99.90;;;;;;4996736;28;90231;-32
2023/01/24 09:29:47;;;;;;;19.15;16.63;;;2.80;99.90;;;;;;4996057;28;89569;-33
2023/01/24 09:32:13;;;;;;;15.38;11.55;;;2.80;99.90;;;;;;4996856;28;89963;-33
2023/01/24 09:34:45;;;;;;;27.10;16.90;;;2.80;99.90;;;;;;4996501;28;89699;-33
2023/01/24 09:37:11;;;;;;;15.10;11.77;;;2.80;99.90;;;;;;4996781;28;90611;-32
2023/01/24 09:39:37;;;;;;;16.35;12.10;;;2.80;99.90;;;;;;4995998;28;90647;-33
2023/01/24 09:42:15;;;;;;;18.45;14.98;;;2.90;99.90;;;;;;4996870;28;90739;-34
2023/01/24 09:45:12;;;;;;;19.35;14.35;;;2.90;99.90;;;;;;4996404;28;89554;-32
2023/01/24 09:47:44;;;;;;;19.63;14.27;;;2.80;99.90;;;;;;5042449;22;89795;-33
2023/01/24 09:50:22;;;;;;;18.52;14.00;;;2.80;99.90;;;;;;5016432;28;90310;-32
2023/01/24 09:52:53;;;;;;;18.67;16.67;;;2.80;99.90;;;;;;5003222;27;89480;-33
2023/01/24 09:55:29;;;;;;;18.60;15.90;;;2.80;99.90;;;;;;4996780;28;88754;-32
2023/01/24 09:58:11;;;;;;;20.80;17.33;;;2.80;99.90;;;;;;4997307;28;89594;-34
2023/01/24 10:00:38;;;;;;;19.55;15.35;;;2.80;99.90;;;;;;4996564;28;89414;-32
2023/01/24 10:03:16;;;;;;;25.58;17.60;;;2.80;99.90;;;;;;4998736;28;89844;-32
2023/01/24 10:05:50;;;;;;;17.33;13.95;;;2.80;99.90;;;;;;4996486;28;88381;-33
2023/01/24 10:08:57;;;;;;;20.75;15.73;;;2.80;99.90;;;;;;4996621;28;90263;-31
2023/01/24 10:11:51;;;;;;;18.05;13.93;;;2.80;99.90;;;;;;4984795;28;89235;-33
2023/01/24 10:14:51;;;;;;;17.38;14.75;;;2.80;99.90;;;;;;4998965;28;89246;-32
2023/01/24 10:17:38;;;;;;;17.27;12.93;;;2.80;99.90;;;;;;4998121;28;88935;-33
2023/01/24 10:20:31;;;;;;;18.55;15.75;;;3.00;99.90;;;;;;4997704;28;91855;-32
2023/01/24 10:23:09;;;;;;;18.92;15.27;;;2.90;99.90;;;;;;4986115;28;91074;-32
2023/01/24 10:25:43;;;;;;;17.23;14.13;;;2.80;99.90;;;;;;4999332;28;88958;-32
2023/01/24 10:28:19;;;;;;;21.58;15.70;;;2.80;99.90;;;;;;5003498;28;89790;-34
2023/01/24 10:31:04;;;;;;;23.77;17.25;;;2.80;99.90;;;;;;5000699;27;89597;-32
2023/01/24 10:33:34;;;;;;;18.70;15.40;;;2.80;99.90;;;;;;5001075;28;90252;-33
2023/01/24 10:36:30;;;;;;;20.10;14.50;;;2.80;99.90;;;;;;4990043;28;89500;-31
2023/01/24 10:38:56;;;;;;;23.00;16.83;;;2.90;99.90;;;;;;5002569;28;88119;-31
2023/01/24 10:41:25;;;;;;;18.70;14.60;;;2.80;99.90;;;;;;5000489;28;91113;-31
2023/01/24 10:44:01;;;;;;;21.83;14.68;;;2.90;99.90;;;;;;5000373;28;89171;-32
2023/01/24 10:47:04;;;;;;;21.60;17.50;;;3.10;99.90;;;;;;5000485;28;90121;-32
2023/01/24 10:49:38;;;;;;;17.02;13.23;;;3.00;99.90;;;;;;5019505;28;89075;-34
2023/01/24 10:52:08;;;;;;;18.60;14.75;;;2.90;99.90;;;;;;5018521;28;90245;-31
2023/01/24 10:54:51;;;;;;;19.83;15.38;;;2.90;99.90;;;;;;5005637;27;89519;-30
2023/01/24 10:57:38;;;;;;;17.23;12.70;;;2.90;99.90;;;;;;5007963;28;89075;-33
2023/01/24 11:00:06;;;;;;;17.27;13.48;;;3.00;99.90;;;;;;5012946;27;88330;-30
2023/01/24 11:02:35;;;;;;;19.70;14.38;;;3.00;99.90;;;;;;5009961;28;91463;-33
2023/01/24 11:05:04;;;;;;;20.58;17.35;;;3.00;99.90;;;;;;5008017;28;89833;-33
2023/01/24 11:07:33;;;;;;;20.38;14.20;;;2.90;99.90;;;;;;5002514;28;89819;-31
2023/01/24 11:10:20;;;;;;;22.80;16.48;;;2.90;99.90;;;;;;5001334;28;88788;-31
2023/01/24 11:13:23;;;;;;;22.02;17.80;;;2.90;99.90;;;;;;5002680;28;90328;-36
2023/01/24 11:15:53;;;;;;;26.23;17.10;;;2.80;99.90;;;;;;4994458;28;90176;-33
2023/01/24 11:18:28;;;;;;;19.23;14.70;;;2.90;99.90;;;;;;5001133;28;89410;-33
2023/01/24 11:21:10;;;;;;;17.40;15.13;;;2.90;99.90;;;;;;5000423;28;88439;-32
2023/01/24 11:23:36;;;;;;;25.90;17.77;;;2.90;99.90;;;;;;5001109;28;91684;-32
2023/01/24 11:26:05;;;;;;;22.65;16.17;;;2.80;99.90;;;;;;4999569;27;90266;-33
2023/01/24 11:28:35;;;;;;;19.20;14.35;;;2.80;99.90;;;;;;5001046;28;90473;-32
2023/01/24 11:31:06;;;;;;;21.95;15.63;;;2.80;99.90;;;;;;4999538;28;89891;-32
2023/01/24 11:34:15;;;;;;;20.38;14.55;;;2.90;99.90;;;;;;4999605;28;90080;-31
2023/01/24 11:37:04;;;;;;;18.17;15.15;;;2.90;99.90;;;;;;4999083;28;89545;-32
2023/01/24 11:39:40;;;;;;;21.15;16.77;;;2.80;99.90;;;;;;4999926;28;88824;-31
2023/01/24 11:42:48;;;;;;;24.70;16.98;;;2.90;99.90;;;;;;4997422;28;88969;-32
2023/01/24 11:45:25;;;;;;;18.67;15.00;;;2.90;99.90;;;;;;4993473;28;90015;-33
2023/01/24 11:48:08;;;;;;;20.50;16.95;;;2.80;99.90;;;;;;4995203;28;89519;-31
2023/01/24 11:51:00;;;;;;;23.88;15.40;;;2.90;99.90;;;;;;5005562;28;89502;-31
2023/01/24 11:53:55;;;;;;;23.38;17.25;;;3.00;99.90;;;;;;5016875;28;89321;-32
2023/01/24 11:56:48;;;;;;;17.08;14.30;;;3.00;99.90;;;;;;5017199;28;90134;-32
2023/01/24 11:59:32;;;;;;;19.40;16.05;;;3.00;99.90;;;;;;5016980;28;89602;-31
2023/01/24 12:02:03;;;;;;;21.08;14.77;;;3.00;99.90;;;;;;4993171;28;90181;-30
2023/01/24 12:04:45;;;;;;;19.60;15.18;;;2.90;99.90;;;;;;5002325;27;88293;-32
2023/01/24 12:07:32;;;;;;;22.05;17.48;;;2.90;99.90;;;;;;4996818;28;90190;-31
2023/01/24 12:10:22;;;;;;;22.55;17.00;;;2.80;99.90;;;;;;4991139;28;89633;-32
2023/01/24 12:12:58;;;;;;;19.52;15.23;;;2.70;99.90;;;;;;5016986;27;90003;-32
2023/01/24 12:15:23;;;;;;;21.85;18.00;;;2.80;99.90;;;;;;5017477;27;88937;-34
2023/01/24 12:18:10;;;;;;;20.52;17.27;;;2.80;99.90;;;;;;5016253;28;89756;-32
2023/01/24 12:20:36;;;;;;;21.40;15.32;;;2.70;99.90;;;;;;5016117;27;90242;-34
2023/01/24 12:23:29;;;;;;;21.05;17.65;;;2.70;99.90;;;;;;5017015;27;91083;-34
2023/01/24 12:26:00;;;;;;;23.00;17.60;;;2.70;99.90;;;;;;5008492;28;89686;-31
2023/01/24 12:28:33;;;;;;;16.42;13.30;;;2.70;99.90;;;;;;5005245;27;89263;-31
2023/01/24 12:31:01;;;;;;;22.15;16.90;;;2.70;99.90;;;;;;4997480;28;89796;-32
2023/01/24 12:33:45;;;;;;;17.83;14.77;;;2.90;99.90;;;;;;5012237;28;89947;-31
2023/01/24 12:36:21;;;;;;;20.92;15.85;;;2.90;99.90;;;;;;5011617;28;88277;-31
2023/01/24 12:38:51;;;;;;;22.70;17.10;;;2.80;99.90;;;;;;5012318;27;90117;-35
2023/01/24 12:41:32;;;;;;;19.67;16.42;;;2.80;99.90;;;;;;5014982;27;90275;-32
2023/01/24 12:44:27;;;;;;;23.33;17.52;;;2.70;99.90;;;;;;5013894;28;88678;-32
2023/01/24 12:47:24;;;;;;;19.48;15.50;;;2.80;99.90;;;;;;5011250;27;89240;-33
2023/01/24 12:50:17;;;;;;;19.40;16.92;;;2.80;99.90;;;;;;5002951;28;90450;-34
2023/01/24 12:53:14;;;;;;;26.15;17.55;;;2.80;99.90;;;;;;5015526;27;89775;-32
2023/01/24 12:55:56;;;;;;;21.95;16.40;;;2.70;99.90;;;;;;5016789;28;89799;-32
2023/01/24 12:58:27;;;;;;;19.13;16.05;;;2.70;99.90;;;;;;5016452;27;90064;-32
2023/01/24 13:00:55;;;;;;;20.80;17.27;;;2.70;99.90;;;;;;5016426;28;90168;-31
2023/01/24 13:03:52;;;;;;;20.48;15.82;;;2.80;99.90;;;;;;5015939;27;89612;-31
2023/01/24 13:06:46;;;;;;;22.23;16.70;;;2.80;99.90;;;;;;5016918;28;88617;-32
2023/01/24 13:09:28;;;;;;;23.13;17.95;;;2.70;99.90;;;;;;5016604;27;88136;-30
2023/01/24 13:11:55;;;;;;;23.02;18.05;;;2.60;99.90;;;;;;5016250;27;89961;-32
2023/01/24 13:14:29;;;;;;;20.85;16.88;;;2.70;99.90;;;;;;4999148;28;90250;-32
2023/01/24 13:17:16;;;;;;;19.33;16.25;;;2.80;99.90;;;;;;4997140;28;89341;-33
2023/01/24 13:20:09;;;;;;;22.05;17.45;;;2.90;99.90;;;;;;4997017;28;89039;-32
2023/01/24 13:23:04;;;;;;;23.02;16.65;;;2.80;99.90;;;;;;4997137;28;90168;-34
2023/01/24 13:26:23;;;;;;;22.35;17.88;;;2.70;99.90;;;;;;4996815;28;89860;-33
2023/01/24 13:29:09;;;;;;;20.40;16.90;;;2.70;99.90;;;;;;4980728;28;89796;-33
2023/01/24 13:32:06;;;;;;;21.90;16.73;;;2.70;99.90;;;;;;4971829;28;88424;-32
2023/01/24 13:34:41;;;;;;;20.73;13.60;;;2.70;99.90;;;;;;5007198;28;89644;-31